createdAt,value
2018-07-10T00:03:53.170Z,20.50
2018-07-10T00:09:05.169Z,20.20
2018-07-10T00:14:07.590Z,20.20
2018-07-10T00:19:09.733Z,20.20
2018-07-10T00:24:11.870Z,20.30
2018-07-10T00:29:14.013Z,20.20
2018-07-10T00:34:16.154Z,20.00
2018-07-10T00:39:18.321Z,20.10
2018-07-10T00:44:20.466Z,20.00
2018-07-10T00:49:22.605Z,20.20
2018-07-10T00:54:24.737Z,20.10
2018-07-10T00:59:26.893Z,20.20
2018-07-10T01:04:29.024Z,20.20
2018-07-10T01:09:31.150Z,20.20
2018-07-10T01:14:34.078Z,20.00
2018-07-10T01:19:36.254Z,19.80
2018-07-10T01:24:38.545Z,19.80
2018-07-10T01:29:46.336Z,19.70
2018-07-10T01:34:48.473Z,19.80
2018-07-10T01:39:50.608Z,19.80
2018-07-10T01:44:52.753Z,19.70
2018-07-10T01:49:54.902Z,19.80
2018-07-10T01:54:57.042Z,19.80
2018-07-10T01:59:59.198Z,19.90
2018-07-10T02:05:01.363Z,19.90
2018-07-10T02:10:03.538Z,19.90
2018-07-10T02:15:05.829Z,19.90
2018-07-10T02:20:07.972Z,19.80
2018-07-10T02:25:10.122Z,19.70
2018-07-10T02:30:12.306Z,19.80
2018-07-10T02:35:14.470Z,19.80
2018-07-10T02:40:16.629Z,19.80
2018-07-10T02:45:18.777Z,19.70
2018-07-10T02:50:20.918Z,19.60
2018-07-10T02:55:23.527Z,19.50
2018-07-10T03:00:25.671Z,19.50
2018-07-10T03:05:27.822Z,19.40
2018-07-10T03:10:30.048Z,19.50
2018-07-10T03:15:32.855Z,19.50
2018-07-10T03:20:35.024Z,19.50
2018-07-10T03:25:37.165Z,19.60
2018-07-10T03:30:39.343Z,19.40
2018-07-10T03:35:41.494Z,19.40
2018-07-10T03:40:43.644Z,19.50
2018-07-10T03:45:45.798Z,19.40
2018-07-10T03:50:47.957Z,19.40
2018-07-10T03:55:50.110Z,19.50
2018-07-10T04:00:52.269Z,19.50
2018-07-10T04:05:54.438Z,19.40
2018-07-10T04:10:56.601Z,19.50
2018-07-10T04:16:00.520Z,19.50
2018-07-10T04:21:13.741Z,19.60
2018-07-10T04:26:18.897Z,19.50
2018-07-10T04:31:33.233Z,19.40
2018-07-10T04:36:36.149Z,19.40
2018-07-10T04:41:41.030Z,19.40
2018-07-10T04:46:51.273Z,19.30
2018-07-10T04:51:57.956Z,19.20
2018-07-10T04:57:04.293Z,18.80
2018-07-10T05:02:06.661Z,18.70
2018-07-10T05:07:09.878Z,18.70
2018-07-10T05:12:12.096Z,18.60
2018-07-10T05:17:14.753Z,18.50
2018-07-10T05:22:17.029Z,18.60
2018-07-10T05:27:19.172Z,18.70
2018-07-10T05:32:21.334Z,18.70
2018-07-10T05:37:31.209Z,18.40
2018-07-10T05:42:33.364Z,18.20
2018-07-10T05:47:35.512Z,18.10
2018-07-10T05:52:37.655Z,18.00
2018-07-10T05:57:39.815Z,17.90
2018-07-10T06:02:41.957Z,18.00
2018-07-10T06:07:44.122Z,18.00
2018-07-10T06:12:47.093Z,17.90
2018-07-10T06:17:49.266Z,17.90
2018-07-10T06:22:52.280Z,17.80
2018-07-10T06:28:01.293Z,17.50
2018-07-10T06:33:13.132Z,17.30
2018-07-10T06:38:16.692Z,17.20
2018-07-10T06:43:23.533Z,17.30
2018-07-10T06:48:27.970Z,17.20
2018-07-10T06:53:30.256Z,17.00
2018-07-10T06:58:32.881Z,17.00
2018-07-10T07:03:35.086Z,16.90
2018-07-10T07:08:37.234Z,17.00
2018-07-10T07:13:39.388Z,17.00
2018-07-10T07:18:41.558Z,17.10
2018-07-10T07:23:43.994Z,17.00
2018-07-10T07:28:46.116Z,17.00
2018-07-10T07:33:48.269Z,16.90
2018-07-10T07:38:50.506Z,17.00
2018-07-10T07:43:52.792Z,17.00
2018-07-10T07:48:55.001Z,17.00
2018-07-10T07:53:57.179Z,17.20
2018-07-10T07:58:59.322Z,17.10
2018-07-10T08:04:01.511Z,17.00
2018-07-10T08:09:04.912Z,16.90
2018-07-10T08:14:07.075Z,16.90
2018-07-10T08:19:09.245Z,17.00
2018-07-10T08:24:11.390Z,17.10
2018-07-10T08:29:13.566Z,17.20
2018-07-10T08:34:15.761Z,17.40
2018-07-10T08:39:18.537Z,17.40
2018-07-10T08:44:20.705Z,17.40
2018-07-10T08:49:25.629Z,17.40
2018-07-10T08:54:27.785Z,17.60
2018-07-10T08:59:30.283Z,17.60
2018-07-10T09:04:32.729Z,17.70
2018-07-10T09:09:34.878Z,17.80
2018-07-10T09:14:37.043Z,17.70
2018-07-10T09:19:39.320Z,17.80
2018-07-10T09:24:46.202Z,18.00
2018-07-10T09:29:48.897Z,18.00
2018-07-10T09:34:51.573Z,18.00
2018-07-10T09:39:59.421Z,18.40
2018-07-10T09:45:02.419Z,18.40
2018-07-10T09:50:04.594Z,18.80
2018-07-10T09:55:06.830Z,19.00
2018-07-10T10:00:08.890Z,19.60
2018-07-10T10:05:11.093Z,19.90
2018-07-10T10:10:13.270Z,19.60
2018-07-10T10:15:15.457Z,20.70
2018-07-10T10:20:17.641Z,21.30
2018-07-10T10:25:19.802Z,20.50
2018-07-10T10:30:21.972Z,20.70
2018-07-10T10:35:24.127Z,20.90
2018-07-10T10:40:27.110Z,20.70
2018-07-10T10:45:29.357Z,20.20
2018-07-10T10:50:31.490Z,19.70
2018-07-10T10:55:34.638Z,19.80
2018-07-10T11:00:37.432Z,20.10
2018-07-10T11:05:39.581Z,20.00
2018-07-10T11:10:42.979Z,20.10
2018-07-10T11:15:47.655Z,19.90
2018-07-10T11:20:54.125Z,20.10
2018-07-10T11:26:04.706Z,20.70
2018-07-10T11:31:06.849Z,21.30
2018-07-10T11:36:09.010Z,20.80
2018-07-10T11:41:11.141Z,20.80
2018-07-10T11:46:13.293Z,21.00
2018-07-10T11:51:15.441Z,20.70
2018-07-10T11:56:17.622Z,20.60
2018-07-10T12:01:19.781Z,21.20
2018-07-10T12:06:21.942Z,21.50
2018-07-10T12:11:26.093Z,21.90
2018-07-10T12:16:28.238Z,21.90
2018-07-10T12:21:30.375Z,22.00
2018-07-10T12:26:32.545Z,22.00
2018-07-10T12:31:34.703Z,22.00
2018-07-10T12:36:36.869Z,22.00
2018-07-10T12:41:39.045Z,22.70
2018-07-10T12:46:41.154Z,22.30
2018-07-10T12:51:43.385Z,22.60
2018-07-10T12:56:45.515Z,22.40
2018-07-10T13:01:47.686Z,21.90
2018-07-10T13:06:49.833Z,22.10
2018-07-10T13:11:52.067Z,21.90
2018-07-10T13:16:54.238Z,21.80
2018-07-10T13:21:56.405Z,21.60
2018-07-10T13:26:58.961Z,21.80
2018-07-10T13:32:01.118Z,21.90
2018-07-10T13:37:03.269Z,22.50
2018-07-10T13:42:05.398Z,22.60
2018-07-10T13:47:07.561Z,22.70
2018-07-10T13:52:09.716Z,22.80
2018-07-10T13:57:11.875Z,22.80
2018-07-10T14:02:14.029Z,22.70
2018-07-10T14:07:16.160Z,22.00
2018-07-10T14:12:18.374Z,21.80
2018-07-10T14:17:20.535Z,21.70
2018-07-10T14:22:23.260Z,21.80
2018-07-10T14:27:25.374Z,22.20
2018-07-10T14:32:27.512Z,21.90
2018-07-10T14:37:29.654Z,22.10
2018-07-10T14:42:31.838Z,21.80
2018-07-10T14:47:35.469Z,21.90
2018-07-10T14:52:37.650Z,22.00
2018-07-10T14:57:39.834Z,22.10
2018-07-10T15:02:42.025Z,22.30
2018-07-10T15:07:44.210Z,22.50
2018-07-10T15:12:46.346Z,22.30
2018-07-10T15:17:55.269Z,22.00
2018-07-10T15:22:57.938Z,21.80
2018-07-10T15:28:00.247Z,21.70
2018-07-10T15:33:02.394Z,21.60
2018-07-10T15:38:04.554Z,21.30
2018-07-10T15:43:06.718Z,21.40
2018-07-10T15:48:08.891Z,21.10
2018-07-10T15:53:11.034Z,21.00
2018-07-10T15:58:13.206Z,21.10
2018-07-10T16:03:15.378Z,21.00
2018-07-10T16:08:18.813Z,21.10
2018-07-10T16:13:22.012Z,21.00
2018-07-10T16:18:25.570Z,20.90
2018-07-10T16:23:28.429Z,21.00
2018-07-10T16:28:30.596Z,21.00
2018-07-10T16:33:33.328Z,21.00
2018-07-10T16:38:36.466Z,20.90
2018-07-10T16:43:38.654Z,20.90
2018-07-10T16:48:45.889Z,20.90
2018-07-10T16:53:51.346Z,20.90
2018-07-10T16:58:54.066Z,21.00
2018-07-10T17:03:59.150Z,20.90
2018-07-10T17:09:01.394Z,20.90
2018-07-10T17:14:03.571Z,21.00
2018-07-10T17:19:05.731Z,21.00
2018-07-10T17:24:07.885Z,21.00
2018-07-10T17:29:11.193Z,21.00
2018-07-10T17:34:13.345Z,21.20
2018-07-10T17:39:15.825Z,21.00
2018-07-10T17:44:17.961Z,21.20
2018-07-10T17:49:20.357Z,21.10
2018-07-10T17:54:22.599Z,21.00
2018-07-10T17:59:24.718Z,20.90
2018-07-10T18:04:26.868Z,20.70
2018-07-10T18:09:29.038Z,20.50
2018-07-10T18:14:31.193Z,20.20
2018-07-10T18:19:33.376Z,20.10
2018-07-10T18:24:35.841Z,20.00
2018-07-10T18:29:37.978Z,20.00
2018-07-10T18:34:40.207Z,20.00
2018-07-10T18:39:42.345Z,20.00
2018-07-10T18:44:44.490Z,20.00
2018-07-10T18:49:47.806Z,20.00
2018-07-10T18:54:49.950Z,19.90
2018-07-10T18:59:57.438Z,19.90
2018-07-10T19:05:06.526Z,19.70
2018-07-10T19:10:08.952Z,19.60
2018-07-10T19:15:12.494Z,19.50
2018-07-10T19:20:15.158Z,19.40
2018-07-10T19:25:17.473Z,19.30
2018-07-10T19:30:23.798Z,19.10
2018-07-10T19:35:26.033Z,19.10
2018-07-10T19:40:28.266Z,19.00
2018-07-10T19:45:30.441Z,19.00
2018-07-10T19:50:37.706Z,18.90
2018-07-10T19:55:41.930Z,18.80
2018-07-10T20:00:49.347Z,18.80
2018-07-10T20:05:56.057Z,18.70
2018-07-10T20:11:02.670Z,18.70
2018-07-10T20:16:07.286Z,18.70
2018-07-10T20:21:21.909Z,18.60
2018-07-10T20:26:35.529Z,18.50
2018-07-10T20:31:41.846Z,18.00
2018-07-10T20:36:47.731Z,17.40
2018-07-10T20:41:49.900Z,16.90
2018-07-10T20:46:58.162Z,16.80
2018-07-10T20:52:02.361Z,16.80
2018-07-10T20:57:52.325Z,16.70
2018-07-10T21:03:13.797Z,16.30
2018-07-10T21:08:21.909Z,16.40
2018-07-10T21:13:37.314Z,16.20
2018-07-10T21:19:48.862Z,15.90
2018-07-10T21:25:13.411Z,15.70
2018-07-10T21:30:22.359Z,15.70
2018-07-10T21:35:28.122Z,15.70
2018-07-10T21:40:40.575Z,15.50
2018-07-10T21:45:55.631Z,16.00
2018-07-10T21:55:59.957Z,15.90
2018-07-10T22:01:45.337Z,15.90
2018-07-10T22:06:48.733Z,15.90
2018-07-10T22:11:51.270Z,15.90
2018-07-10T22:16:53.422Z,15.90
2018-07-10T22:21:55.917Z,15.90
2018-07-10T22:26:58.730Z,16.00
2018-07-10T22:32:02.173Z,16.00
2018-07-10T22:37:04.310Z,15.80
2018-07-10T22:42:06.468Z,15.80
2018-07-10T22:47:08.606Z,15.80
2018-07-10T22:52:10.737Z,15.90
2018-07-10T22:57:13.294Z,15.90
2018-07-10T23:02:15.413Z,15.90
2018-07-10T23:07:17.550Z,15.90
2018-07-10T23:12:19.689Z,15.70
2018-07-10T23:17:21.845Z,15.80
2018-07-10T23:22:34.162Z,15.60
2018-07-10T23:27:36.313Z,15.40
2018-07-10T23:32:38.453Z,15.40
2018-07-10T23:37:47.318Z,15.40
2018-07-10T23:42:49.743Z,15.30
2018-07-10T23:47:53.667Z,15.50
2018-07-10T23:53:28.926Z,15.40
2018-07-10T23:58:31.117Z,15.40
